sensor_id;sensor_type;location;lat;lon;timestamp;temperature;humidity
55151;DHT22;41041;43.162;20.538;2023-12-20T00:20:21;0.50;2201.60
55151;DHT22;41041;43.162;20.538;2023-12-20T03:56:36;0.80;2201.60
55151;DHT22;41041;43.162;20.538;2023-12-20T03:59:02;0.40;2201.60
55151;DHT22;41041;43.162;20.538;2023-12-20T04:01:28;0.20;2201.60
55151;DHT22;41041;43.162;20.538;2023-12-20T04:06:19;0.30;2201.60
55151;DHT22;41041;43.162;20.538;2023-12-20T04:08:45;0.00;2201.60
55151;DHT22;41041;43.162;20.538;2023-12-20T04:11:11;12.90;2201.60
55151;DHT22;41041;43.162;20.538;2023-12-20T04:38:00;0.80;2201.60
55151;DHT22;41041;43.162;20.538;2023-12-20T04:40:26;0.80;2201.60
55151;DHT22;41041;43.162;20.538;2023-12-20T04:42:52;0.60;2201.60
55151;DHT22;41041;43.162;20.538;2023-12-20T04:45:18;0.50;2201.60
55151;DHT22;41041;43.162;20.538;2023-12-20T04:47:45;0.30;2201.60
55151;DHT22;41041;43.162;20.538;2023-12-20T04:50:14;0.20;2201.60
55151;DHT22;41041;43.162;20.538;2023-12-20T04:52:40;0.20;2201.60
55151;DHT22;41041;43.162;20.538;2023-12-20T05:07:16;0.80;2201.60
55151;DHT22;41041;43.162;20.538;2023-12-20T05:09:42;0.60;2201.60
55151;DHT22;41041;43.162;20.538;2023-12-20T05:12:28;0.60;2201.60
55151;DHT22;41041;43.162;20.538;2023-12-20T05:14:54;0.60;2201.60
55151;DHT22;41041;43.162;20.538;2023-12-20T05:17:19;0.60;2201.60
55151;DHT22;41041;43.162;20.538;2023-12-20T05:19:46;0.60;2201.60
55151;DHT22;41041;43.162;20.538;2023-12-20T05:22:11;0.70;2201.60
55151;DHT22;41041;43.162;20.538;2023-12-20T05:24:37;25.60;2201.60
55151;DHT22;41041;43.162;20.538;2023-12-20T08:16:17;52.10;2227.20
55151;DHT22;41041;43.162;20.538;2023-12-20T08:18:56;76.90;2227.20
55151;DHT22;41041;43.162;20.538;2023-12-20T08:21:22;76.80;2227.20
55151;DHT22;41041;43.162;20.538;2023-12-20T08:23:48;76.80;2227.20
55151;DHT22;41041;43.162;20.538;2023-12-20T08:26:13;52.10;2227.20
55151;DHT22;41041;43.162;20.538;2023-12-20T08:28:39;52.00;2227.20
55151;DHT22;41041;43.162;20.538;2023-12-20T08:31:05;51.90;2227.20
55151;DHT22;41041;43.162;20.538;2023-12-20T08:33:31;51.80;2227.20
55151;DHT22;41041;43.162;20.538;2023-12-20T08:35:56;51.90;2227.20
55151;DHT22;41041;43.162;20.538;2023-12-20T08:38:22;52.00;2227.20
55151;DHT22;41041;43.162;20.538;2023-12-20T08:40:48;52.10;2227.20
55151;DHT22;41041;43.162;20.538;2023-12-20T08:43:14;76.90;2227.20
55151;DHT22;41041;43.162;20.538;2023-12-20T08:45:40;77.10;2227.20
55151;DHT22;41041;43.162;20.538;2023-12-20T08:48:06;77.10;2227.20
55151;DHT22;41041;43.162;20.538;2023-12-20T08:50:32;76.90;2227.20
55151;DHT22;41041;43.162;20.538;2023-12-20T08:52:58;77.00;2227.20
55151;DHT22;41041;43.162;20.538;2023-12-20T08:55:24;77.00;2227.20
55151;DHT22;41041;43.162;20.538;2023-12-20T08:57:49;77.10;2227.20
55151;DHT22;41041;43.162;20.538;2023-12-20T09:00:16;77.10;2227.20
55151;DHT22;41041;43.162;20.538;2023-12-20T09:02:42;77.30;2227.20
55151;DHT22;41041;43.162;20.538;2023-12-20T09:05:08;77.30;2227.20
55151;DHT22;41041;43.162;20.538;2023-12-20T09:07:34;77.60;2227.20
55151;DHT22;41041;43.162;20.538;2023-12-20T09:10:00;77.50;2227.20
55151;DHT22;41041;43.162;20.538;2023-12-20T09:12:26;77.40;2227.20
55151;DHT22;41041;43.162;20.538;2023-12-20T09:52:26;102.80;2227.20
55151;DHT22;41041;43.162;20.538;2023-12-20T09:54:52;102.50;2227.20
55151;DHT22;41041;43.162;20.538;2023-12-20T10:02:13;103.10;2227.20
55151;DHT22;41041;43.162;20.538;2023-12-20T10:04:46;102.90;2227.20
55151;DHT22;41041;43.162;20.538;2023-12-20T10:07:13;103.00;2227.20
55151;DHT22;41041;43.162;20.538;2023-12-20T10:09:39;102.90;2227.20
55151;DHT22;41041;43.162;20.538;2023-12-20T10:12:05;102.90;2227.20
55151;DHT22;41041;43.162;20.538;2023-12-20T10:14:32;102.90;2227.20
55151;DHT22;41041;43.162;20.538;2023-12-20T10:17:05;103.00;2227.20
55151;DHT22;41041;43.162;20.538;2023-12-20T10:19:32;103.20;2227.20
55151;DHT22;41041;43.162;20.538;2023-12-20T10:22:04;103.10;2227.20
55151;DHT22;41041;43.162;20.538;2023-12-20T10:24:30;128.00;2252.80
55151;DHT22;41041;43.162;20.538;2023-12-20T10:27:07;103.30;2227.20
55151;DHT22;41041;43.162;20.538;2023-12-20T10:29:36;128.00;2252.80
55151;DHT22;41041;43.162;20.538;2023-12-20T10:32:21;128.50;2252.80
55151;DHT22;41041;43.162;20.538;2023-12-20T10:34:47;128.30;2252.80
55151;DHT22;41041;43.162;20.538;2023-12-20T10:37:13;128.30;2252.80
55151;DHT22;41041;43.162;20.538;2023-12-20T10:39:39;128.40;2252.80
55151;DHT22;41041;43.162;20.538;2023-12-20T10:49:41;153.60;2252.80
55151;DHT22;41041;43.162;20.538;2023-12-20T10:52:08;128.80;2252.80
55151;DHT22;41041;43.162;20.538;2023-12-20T10:54:34;128.60;2252.80
55151;DHT22;41041;43.162;20.538;2023-12-20T10:57:00;128.60;2252.80
55151;DHT22;41041;43.162;20.538;2023-12-20T10:59:29;128.70;2252.80
55151;DHT22;41041;43.162;20.538;2023-12-20T11:01:59;128.70;2252.80
55151;DHT22;41041;43.162;20.538;2023-12-20T11:04:42;128.80;2252.80
55151;DHT22;41041;43.162;20.538;2023-12-20T11:15:19;153.80;2252.80
55151;DHT22;41041;43.162;20.538;2023-12-20T11:17:54;153.90;2252.80
55151;DHT22;41041;43.162;20.538;2023-12-20T11:25:22;179.20;2252.80
55151;DHT22;41041;43.162;20.538;2023-12-20T11:31:14;154.40;2252.80
55151;DHT22;41041;43.162;20.538;2023-12-20T11:33:40;154.50;2252.80
55151;DHT22;41041;43.162;20.538;2023-12-20T11:36:18;154.50;2252.80
55151;DHT22;41041;43.162;20.538;2023-12-20T11:42:06;179.30;2252.80
55151;DHT22;41041;43.162;20.538;2023-12-20T11:44:33;179.30;2252.80
55151;DHT22;41041;43.162;20.538;2023-12-20T11:46:59;179.30;2252.80
55151;DHT22;41041;43.162;20.538;2023-12-20T11:49:28;179.30;2252.80
55151;DHT22;41041;43.162;20.538;2023-12-20T11:54:59;179.40;2252.80
55151;DHT22;41041;43.162;20.538;2023-12-20T12:00:49;179.50;2252.80
55151;DHT22;41041;43.162;20.538;2023-12-20T12:03:15;179.50;2252.80
55151;DHT22;41041;43.162;20.538;2023-12-20T12:05:41;179.40;2252.80
55151;DHT22;41041;43.162;20.538;2023-12-20T12:08:07;179.40;2252.80
55151;DHT22;41041;43.162;20.538;2023-12-20T12:13:55;179.50;2252.80
55151;DHT22;41041;43.162;20.538;2023-12-20T12:19:45;179.50;2252.80
55151;DHT22;41041;43.162;20.538;2023-12-20T12:25:36;179.50;2252.80
55151;DHT22;41041;43.162;20.538;2023-12-20T12:31:28;179.60;2252.80
55151;DHT22;41041;43.162;20.538;2023-12-20T12:33:54;179.90;2252.80
55151;DHT22;41041;43.162;20.538;2023-12-20T12:36:20;179.60;2252.80
55151;DHT22;41041;43.162;20.538;2023-12-20T12:42:07;179.20;2252.80
55151;DHT22;41041;43.162;20.538;2023-12-20T12:44:33;154.50;2252.80
55151;DHT22;41041;43.162;20.538;2023-12-20T12:46:59;154.40;2252.80
55151;DHT22;41041;43.162;20.538;2023-12-20T12:49:25;154.20;2252.80
55151;DHT22;41041;43.162;20.538;2023-12-20T12:51:51;154.20;2252.80
55151;DHT22;41041;43.162;20.538;2023-12-20T12:54:17;154.10;2252.80
55151;DHT22;41041;43.162;20.538;2023-12-20T12:57:13;154.10;2252.80
55151;DHT22;41041;43.162;20.538;2023-12-20T12:59:39;154.10;2252.80
55151;DHT22;41041;43.162;20.538;2023-12-20T13:02:05;154.00;2252.80
55151;DHT22;41041;43.162;20.538;2023-12-20T13:04:31;154.00;2252.80
55151;DHT22;41041;43.162;20.538;2023-12-20T13:06:57;153.90;2252.80
55151;DHT22;41041;43.162;20.538;2023-12-20T13:12:49;153.90;2252.80
55151;DHT22;41041;43.162;20.538;2023-12-20T13:18:38;153.90;2252.80
55151;DHT22;41041;43.162;20.538;2023-12-20T13:21:08;153.90;2252.80
55151;DHT22;41041;43.162;20.538;2023-12-20T13:23:34;153.90;2252.80
55151;DHT22;41041;43.162;20.538;2023-12-20T13:26:02;153.90;2252.80
55151;DHT22;41041;43.162;20.538;2023-12-20T13:38:34;153.80;2252.80
55151;DHT22;41041;43.162;20.538;2023-12-20T13:41:00;153.80;2252.80
55151;DHT22;41041;43.162;20.538;2023-12-20T13:43:26;153.90;2252.80
55151;DHT22;41041;43.162;20.538;2023-12-20T13:45:51;153.90;2252.80
55151;DHT22;41041;43.162;20.538;2023-12-20T13:48:18;153.80;2252.80
55151;DHT22;41041;43.162;20.538;2023-12-20T13:50:43;153.80;2252.80
55151;DHT22;41041;43.162;20.538;2023-12-20T13:53:10;153.80;2252.80
55151;DHT22;41041;43.162;20.538;2023-12-20T13:55:36;153.70;2252.80
55151;DHT22;41041;43.162;20.538;2023-12-20T13:58:02;153.70;2252.80
55151;DHT22;41041;43.162;20.538;2023-12-20T14:00:28;153.70;2252.80
55151;DHT22;41041;43.162;20.538;2023-12-20T14:02:54;153.70;2252.80
55151;DHT22;41041;43.162;20.538;2023-12-20T14:05:20;153.60;2252.80
55151;DHT22;41041;43.162;20.538;2023-12-20T14:11:10;153.60;2252.80
55151;DHT22;41041;43.162;20.538;2023-12-20T14:17:24;153.60;2150.40
55151;DHT22;41041;43.162;20.538;2023-12-20T14:19:50;128.80;2252.80
55151;DHT22;41041;43.162;20.538;2023-12-20T14:22:17;128.70;2252.80
55151;DHT22;41041;43.162;20.538;2023-12-20T14:24:43;128.70;2252.80
55151;DHT22;41041;43.162;20.538;2023-12-20T14:27:09;128.70;2252.80
55151;DHT22;41041;43.162;20.538;2023-12-20T14:29:36;128.60;2252.80
55151;DHT22;41041;43.162;20.538;2023-12-20T14:32:03;128.60;2252.80
55151;DHT22;41041;43.162;20.538;2023-12-20T14:34:29;128.70;2252.80
55151;DHT22;41041;43.162;20.538;2023-12-20T14:36:55;128.60;2022.40
55151;DHT22;41041;43.162;20.538;2023-12-20T14:39:40;128.60;2252.80
55151;DHT22;41041;43.162;20.538;2023-12-20T14:42:10;128.70;2252.80
55151;DHT22;41041;43.162;20.538;2023-12-20T14:44:58;128.40;2252.80
55151;DHT22;41041;43.162;20.538;2023-12-20T14:49:50;128.40;2252.80
55151;DHT22;41041;43.162;20.538;2023-12-20T14:52:18;128.20;2252.80
55151;DHT22;41041;43.162;20.538;2023-12-20T14:54:55;128.30;2252.80
55151;DHT22;41041;43.162;20.538;2023-12-20T14:57:21;128.20;2252.80
55151;DHT22;41041;43.162;20.538;2023-12-20T15:02:59;103.20;2227.20
55151;DHT22;41041;43.162;20.538;2023-12-20T15:05:25;128.00;2252.80
55151;DHT22;41041;43.162;20.538;2023-12-20T15:07:56;103.30;2227.20
55151;DHT22;41041;43.162;20.538;2023-12-20T15:10:23;103.20;2227.20
55151;DHT22;41041;43.162;20.538;2023-12-20T15:12:50;103.00;2227.20
55151;DHT22;41041;43.162;20.538;2023-12-20T21:44:43;77.00;2227.20
55151;DHT22;41041;43.162;20.538;2023-12-20T22:07:16;51.50;2227.20
55151;DHT22;41041;43.162;20.538;2023-12-20T22:13:04;26.50;2073.60
55151;DHT22;41041;43.162;20.538;2023-12-20T22:15:30;26.50;1945.60
55151;DHT22;41041;43.162;20.538;2023-12-20T22:22:51;51.60;2227.20
55151;DHT22;41041;43.162;20.538;2023-12-20T22:25:17;51.30;2227.20
55151;DHT22;41041;43.162;20.538;2023-12-20T22:45:30;51.40;2227.20
55151;DHT22;41041;43.162;20.538;2023-12-20T22:51:20;26.30;2201.60
55151;DHT22;41041;43.162;20.538;2023-12-20T22:53:46;26.30;2201.60
55151;DHT22;41041;43.162;20.538;2023-12-20T22:56:12;26.30;2201.60
55151;DHT22;41041;43.162;20.538;2023-12-20T22:58:37;26.30;2201.60
55151;DHT22;41041;43.162;20.538;2023-12-20T23:01:03;26.10;2201.60
55151;DHT22;41041;43.162;20.538;2023-12-20T23:03:30;26.30;2201.60
55151;DHT22;41041;43.162;20.538;2023-12-20T23:05:56;26.30;2201.60
55151;DHT22;41041;43.162;20.538;2023-12-20T23:08:22;26.40;2201.60
55151;DHT22;41041;43.162;20.538;2023-12-20T23:10:47;51.20;2227.20
55151;DHT22;41041;43.162;20.538;2023-12-20T23:13:13;51.30;2227.20
55151;DHT22;41041;43.162;20.538;2023-12-20T23:15:39;51.20;2227.20
55151;DHT22;41041;43.162;20.538;2023-12-20T23:18:05;26.50;2073.60
55151;DHT22;41041;43.162;20.538;2023-12-20T23:20:31;26.40;2201.60
55151;DHT22;41041;43.162;20.538;2023-12-20T23:22:56;26.40;2201.60
55151;DHT22;41041;43.162;20.538;2023-12-20T23:25:22;26.40;2201.60
55151;DHT22;41041;43.162;20.538;2023-12-20T23:27:48;26.40;2201.60
55151;DHT22;41041;43.162;20.538;2023-12-20T23:30:17;26.40;2201.60
55151;DHT22;41041;43.162;20.538;2023-12-20T23:32:43;26.50;2201.60
55151;DHT22;41041;43.162;20.538;2023-12-20T23:35:09;26.50;2201.60
55151;DHT22;41041;43.162;20.538;2023-12-20T23:37:34;26.50;2201.60
55151;DHT22;41041;43.162;20.538;2023-12-20T23:40:00;26.50;2201.60
55151;DHT22;41041;43.162;20.538;2023-12-20T23:42:26;26.50;2201.60
55151;DHT22;41041;43.162;20.538;2023-12-20T23:44:52;26.50;2201.60
55151;DHT22;41041;43.162;20.538;2023-12-20T23:47:18;51.20;2227.20
55151;DHT22;41041;43.162;20.538;2023-12-20T23:49:44;26.50;2201.60
55151;DHT22;41041;43.162;20.538;2023-12-20T23:52:10;26.40;2201.60
55151;DHT22;41041;43.162;20.538;2023-12-20T23:54:36;51.20;2227.20
55151;DHT22;41041;43.162;20.538;2023-12-20T23:57:02;51.70;2227.20
55151;DHT22;41041;43.162;20.538;2023-12-20T23:59:27;51.70;2227.20
